EmailTwitter


Observations de surface / France / LFBO (07630)

Régions: Québec | Canada | États-Unis | Europe | France | UK | Ailleurs
Station
Affichage
Infos & localisation pour LFBO (07630) | Aide pour décoder les METARs

Observations prises le 2018-04-19 à 09H30 UTC à TOULOUSE/BLAGNAC, FR (LFBO)

Température: 22.0 Celsius

Point de rosée: 8.0 Celsius

Humidité relative: 41%

Vents: Est-sud-est à 33 km/h ou 18 noeuds.

Pression au niveau moyen de la mer: 102.40 kilopascals.

Observation METAR:

LFBO 190930Z AUTO 11018KT 080V140 CAVOK 22/08 Q1024 BECMG 12015G25KT=